sensor_id;sensor_type;location;lat;lon;timestamp;pressure;altitude;pressure_sealevel;temperature;humidity
47706;BME280;33471;52.104;1.318;2022-11-21T00:01:38;100392.04;;;5.09;57.10
47706;BME280;33471;52.104;1.318;2022-11-21T00:04:05;100383.95;;;6.03;54.49
47706;BME280;33471;52.104;1.318;2022-11-21T00:06:32;100382.40;;;6.23;54.99
47706;BME280;33471;52.104;1.318;2022-11-21T00:09:00;100374.21;;;6.01;54.12
47706;BME280;33471;52.104;1.318;2022-11-21T00:11:27;100375.04;;;5.70;55.73
47706;BME280;33471;52.104;1.318;2022-11-21T00:13:54;100362.10;;;5.32;56.15
47706;BME280;33471;52.104;1.318;2022-11-21T00:16:22;100363.09;;;5.09;57.60
47706;BME280;33471;52.104;1.318;2022-11-21T00:18:49;100366.50;;;5.75;56.77
47706;BME280;33471;52.104;1.318;2022-11-21T00:21:18;100363.54;;;6.45;53.32
47706;BME280;33471;52.104;1.318;2022-11-21T00:23:46;100375.40;;;5.92;54.52
47706;BME280;33471;52.104;1.318;2022-11-21T00:26:15;100371.31;;;6.00;54.76
47706;BME280;33471;52.104;1.318;2022-11-21T00:28:43;100361.41;;;6.74;53.26
47706;BME280;33471;52.104;1.318;2022-11-21T00:31:18;100364.60;;;4.99;55.85
47706;BME280;33471;52.104;1.318;2022-11-21T00:33:45;100354.38;;;5.34;56.00
47706;BME280;33471;52.104;1.318;2022-11-21T00:36:13;100348.32;;;6.02;54.13
47706;BME280;33471;52.104;1.318;2022-11-21T00:38:40;100339.28;;;6.71;53.08
47706;BME280;33471;52.104;1.318;2022-11-21T00:41:07;100334.40;;;6.70;52.64
47706;BME280;33471;52.104;1.318;2022-11-21T00:43:34;100335.30;;;7.13;50.89
47706;BME280;33471;52.104;1.318;2022-11-21T00:46:02;100339.47;;;6.91;51.09
47706;BME280;33471;52.104;1.318;2022-11-21T00:48:30;100340.79;;;7.43;50.22
47706;BME280;33471;52.104;1.318;2022-11-21T00:50:58;100341.90;;;6.87;50.12
47706;BME280;33471;52.104;1.318;2022-11-21T00:53:25;100344.40;;;7.13;50.81
47706;BME280;33471;52.104;1.318;2022-11-21T00:55:52;100342.63;;;6.85;51.34
47706;BME280;33471;52.104;1.318;2022-11-21T00:58:20;100338.48;;;7.00;51.26
47706;BME280;33471;52.104;1.318;2022-11-21T01:00:47;100331.13;;;7.24;50.55
47706;BME280;33471;52.104;1.318;2022-11-21T01:03:14;100328.40;;;7.18;50.10
47706;BME280;33471;52.104;1.318;2022-11-21T01:05:41;100323.68;;;6.82;50.83
47706;BME280;33471;52.104;1.318;2022-11-21T01:08:07;100321.63;;;7.89;48.84
47706;BME280;33471;52.104;1.318;2022-11-21T01:10:35;100322.65;;;7.32;49.99
47706;BME280;33471;52.104;1.318;2022-11-21T01:13:03;100322.11;;;7.37;48.91
47706;BME280;33471;52.104;1.318;2022-11-21T01:15:30;100321.41;;;7.62;48.69
47706;BME280;33471;52.104;1.318;2022-11-21T01:17:57;100315.70;;;6.86;48.77
47706;BME280;33471;52.104;1.318;2022-11-21T01:20:24;100311.01;;;7.85;48.31
47706;BME280;33471;52.104;1.318;2022-11-21T01:22:52;100308.98;;;7.12;49.34
47706;BME280;33471;52.104;1.318;2022-11-21T01:25:19;100310.80;;;7.48;49.07
47706;BME280;33471;52.104;1.318;2022-11-21T01:27:46;100308.63;;;7.36;49.92
47706;BME280;33471;52.104;1.318;2022-11-21T01:30:14;100305.31;;;6.79;50.58
47706;BME280;33471;52.104;1.318;2022-11-21T01:32:41;100303.74;;;6.28;51.63
47706;BME280;33471;52.104;1.318;2022-11-21T01:35:08;100306.66;;;6.85;50.53
47706;BME280;33471;52.104;1.318;2022-11-21T01:37:36;100302.28;;;7.60;49.54
47706;BME280;33471;52.104;1.318;2022-11-21T01:40:03;100293.18;;;6.61;50.82
47706;BME280;33471;52.104;1.318;2022-11-21T01:42:48;100301.44;;;5.59;54.07
47706;BME280;33471;52.104;1.318;2022-11-21T01:45:56;100303.61;;;6.80;52.39
47706;BME280;33471;52.104;1.318;2022-11-21T01:48:28;100302.14;;;5.57;53.73
47706;BME280;33471;52.104;1.318;2022-11-21T01:51:04;100293.19;;;6.13;51.16
47706;BME280;33471;52.104;1.318;2022-11-21T01:53:32;100297.67;;;7.14;49.43
47706;BME280;33471;52.104;1.318;2022-11-21T01:55:59;100289.57;;;6.54;50.32
47706;BME280;33471;52.104;1.318;2022-11-21T01:58:28;100284.56;;;7.04;49.64
47706;BME280;33471;52.104;1.318;2022-11-21T02:00:58;100282.87;;;5.48;51.90
47706;BME280;33471;52.104;1.318;2022-11-21T02:03:28;100288.58;;;6.82;50.32
47706;BME280;33471;52.104;1.318;2022-11-21T02:05:58;100288.52;;;6.22;50.37
47706;BME280;33471;52.104;1.318;2022-11-21T02:08:25;100291.29;;;6.16;51.95
47706;BME280;33471;52.104;1.318;2022-11-21T02:11:01;100289.85;;;5.67;52.07
47706;BME280;33471;52.104;1.318;2022-11-21T02:13:32;100281.08;;;6.79;50.70
47706;BME280;33471;52.104;1.318;2022-11-21T02:16:00;100274.38;;;6.07;50.60
47706;BME280;33471;52.104;1.318;2022-11-21T02:18:27;100273.79;;;6.98;49.83
47706;BME280;33471;52.104;1.318;2022-11-21T02:20:58;100272.66;;;6.90;49.56
47706;BME280;33471;52.104;1.318;2022-11-21T02:23:32;100271.96;;;7.60;48.20
47706;BME280;33471;52.104;1.318;2022-11-21T02:26:03;100269.06;;;7.74;47.80
47706;BME280;33471;52.104;1.318;2022-11-21T02:28:30;100265.38;;;7.57;48.10
47706;BME280;33471;52.104;1.318;2022-11-21T02:30:57;100266.41;;;6.93;48.71
47706;BME280;33471;52.104;1.318;2022-11-21T02:33:25;100266.85;;;7.52;48.51
47706;BME280;33471;52.104;1.318;2022-11-21T02:35:56;100265.81;;;5.76;51.33
47706;BME280;33471;52.104;1.318;2022-11-21T02:38:27;100264.56;;;6.60;50.26
47706;BME280;33471;52.104;1.318;2022-11-21T02:41:02;100277.12;;;4.97;52.55
47706;BME280;33471;52.104;1.318;2022-11-21T02:43:36;100274.32;;;6.58;50.68
47706;BME280;33471;52.104;1.318;2022-11-21T02:46:06;100276.87;;;6.14;51.25
47706;BME280;33471;52.104;1.318;2022-11-21T02:48:33;100280.54;;;6.47;51.53
47706;BME280;33471;52.104;1.318;2022-11-21T02:51:02;100274.79;;;6.16;50.68
47706;BME280;33471;52.104;1.318;2022-11-21T02:53:29;100276.71;;;4.26;56.19
47706;BME280;33471;52.104;1.318;2022-11-21T02:55:56;100267.83;;;4.51;54.64
47706;BME280;33471;52.104;1.318;2022-11-21T02:58:23;100264.73;;;4.79;55.50
47706;BME280;33471;52.104;1.318;2022-11-21T03:00:51;100262.16;;;4.81;55.87
47706;BME280;33471;52.104;1.318;2022-11-21T03:03:19;100261.25;;;4.57;56.16
47706;BME280;33471;52.104;1.318;2022-11-21T03:05:46;100262.83;;;4.97;56.40
47706;BME280;33471;52.104;1.318;2022-11-21T03:08:12;100256.16;;;4.57;56.61
47706;BME280;33471;52.104;1.318;2022-11-21T03:10:40;100256.52;;;5.62;54.17
47706;BME280;33471;52.104;1.318;2022-11-21T03:13:07;100250.12;;;5.47;54.44
47706;BME280;33471;52.104;1.318;2022-11-21T03:15:35;100249.29;;;5.29;55.15
47706;BME280;33471;52.104;1.318;2022-11-21T03:18:03;100248.38;;;5.42;53.42
47706;BME280;33471;52.104;1.318;2022-11-21T03:20:31;100242.14;;;5.81;53.91
47706;BME280;33471;52.104;1.318;2022-11-21T03:23:00;100234.84;;;5.80;52.52
47706;BME280;33471;52.104;1.318;2022-11-21T03:25:27;100230.56;;;5.50;54.24
47706;BME280;33471;52.104;1.318;2022-11-21T03:27:55;100230.22;;;4.93;55.32
47706;BME280;33471;52.104;1.318;2022-11-21T03:30:24;100225.18;;;5.18;54.97
47706;BME280;33471;52.104;1.318;2022-11-21T03:32:54;100221.50;;;4.48;56.89
47706;BME280;33471;52.104;1.318;2022-11-21T03:35:22;100220.13;;;4.73;57.15
47706;BME280;33471;52.104;1.318;2022-11-21T03:37:51;100215.15;;;4.44;57.61
47706;BME280;33471;52.104;1.318;2022-11-21T03:40:18;100209.73;;;4.76;56.75
47706;BME280;33471;52.104;1.318;2022-11-21T03:42:45;100203.58;;;4.80;56.48
47706;BME280;33471;52.104;1.318;2022-11-21T03:45:12;100203.22;;;4.68;56.96
47706;BME280;33471;52.104;1.318;2022-11-21T03:47:40;100205.93;;;4.83;56.83
47706;BME280;33471;52.104;1.318;2022-11-21T03:50:08;100200.56;;;4.70;57.08
47706;BME280;33471;52.104;1.318;2022-11-21T03:52:35;100192.77;;;5.76;55.13
47706;BME280;33471;52.104;1.318;2022-11-21T03:55:03;100189.17;;;5.81;53.74
47706;BME280;33471;52.104;1.318;2022-11-21T03:57:30;100182.80;;;5.78;54.04
47706;BME280;33471;52.104;1.318;2022-11-21T03:59:57;100183.88;;;5.42;53.58
47706;BME280;33471;52.104;1.318;2022-11-21T04:02:24;100185.10;;;5.28;54.94
47706;BME280;33471;52.104;1.318;2022-11-21T04:04:52;100187.12;;;4.52;56.45
47706;BME280;33471;52.104;1.318;2022-11-21T04:07:19;100183.92;;;5.18;55.93
47706;BME280;33471;52.104;1.318;2022-11-21T04:09:47;100179.98;;;5.22;54.49
47706;BME280;33471;52.104;1.318;2022-11-21T04:12:14;100169.64;;;5.91;53.87
47706;BME280;33471;52.104;1.318;2022-11-21T04:14:41;100172.85;;;5.29;55.11
47706;BME280;33471;52.104;1.318;2022-11-21T04:17:08;100168.96;;;5.37;53.16
47706;BME280;33471;52.104;1.318;2022-11-21T04:19:35;100166.89;;;5.89;53.45
47706;BME280;33471;52.104;1.318;2022-11-21T04:22:02;100156.45;;;5.64;53.62
47706;BME280;33471;52.104;1.318;2022-11-21T04:24:29;100144.97;;;5.20;55.17
47706;BME280;33471;52.104;1.318;2022-11-21T04:26:57;100134.08;;;4.61;55.01
47706;BME280;33471;52.104;1.318;2022-11-21T04:29:24;100127.21;;;4.48;55.95
47706;BME280;33471;52.104;1.318;2022-11-21T04:31:52;100120.96;;;5.31;53.85
47706;BME280;33471;52.104;1.318;2022-11-21T04:34:19;100113.70;;;4.67;55.46
47706;BME280;33471;52.104;1.318;2022-11-21T04:36:46;100106.08;;;5.63;53.43
47706;BME280;33471;52.104;1.318;2022-11-21T04:39:14;100101.94;;;4.97;54.51
47706;BME280;33471;52.104;1.318;2022-11-21T04:41:41;100096.77;;;6.50;51.23
47706;BME280;33471;52.104;1.318;2022-11-21T04:44:08;100092.11;;;6.05;50.73
47706;BME280;33471;52.104;1.318;2022-11-21T04:46:35;100088.75;;;6.89;50.48
47706;BME280;33471;52.104;1.318;2022-11-21T04:49:02;100085.06;;;6.15;50.44
47706;BME280;33471;52.104;1.318;2022-11-21T04:51:30;100072.40;;;6.44;50.48
47706;BME280;33471;52.104;1.318;2022-11-21T04:53:57;100068.23;;;5.81;50.39
47706;BME280;33471;52.104;1.318;2022-11-21T04:56:24;100061.01;;;6.95;49.89
47706;BME280;33471;52.104;1.318;2022-11-21T04:58:52;100056.01;;;6.62;49.45
47706;BME280;33471;52.104;1.318;2022-11-21T05:01:19;100053.14;;;7.61;48.45
47706;BME280;33471;52.104;1.318;2022-11-21T05:03:47;100048.83;;;7.70;48.12
47706;BME280;33471;52.104;1.318;2022-11-21T05:06:14;100044.16;;;7.33;47.72
47706;BME280;33471;52.104;1.318;2022-11-21T05:08:41;100034.04;;;7.82;47.56
47706;BME280;33471;52.104;1.318;2022-11-21T05:11:08;100024.06;;;7.18;47.26
47706;BME280;33471;52.104;1.318;2022-11-21T05:13:35;100016.00;;;7.65;47.22
47706;BME280;33471;52.104;1.318;2022-11-21T05:16:02;100014.82;;;7.17;47.02
47706;BME280;33471;52.104;1.318;2022-11-21T05:18:30;100016.91;;;7.53;47.20
47706;BME280;33471;52.104;1.318;2022-11-21T05:20:57;100013.38;;;6.82;47.04
47706;BME280;33471;52.104;1.318;2022-11-21T05:23:24;100009.86;;;7.72;46.86
47706;BME280;33471;52.104;1.318;2022-11-21T05:25:52;100007.38;;;7.09;46.93
47706;BME280;33471;52.104;1.318;2022-11-21T05:28:19;100006.06;;;7.05;46.81
47706;BME280;33471;52.104;1.318;2022-11-21T05:30:47;100003.26;;;7.26;46.81
47706;BME280;33471;52.104;1.318;2022-11-21T05:33:14;99999.21;;;6.94;46.81
47706;BME280;33471;52.104;1.318;2022-11-21T05:35:41;99995.48;;;7.14;46.75
47706;BME280;33471;52.104;1.318;2022-11-21T05:38:08;99990.66;;;6.96;46.38
47706;BME280;33471;52.104;1.318;2022-11-21T05:40:35;99987.05;;;7.28;46.53
47706;BME280;33471;52.104;1.318;2022-11-21T05:43:03;99986.14;;;6.89;46.36
47706;BME280;33471;52.104;1.318;2022-11-21T05:45:30;99987.43;;;7.35;46.27
47706;BME280;33471;52.104;1.318;2022-11-21T05:47:58;99986.78;;;6.60;46.21
47706;BME280;33471;52.104;1.318;2022-11-21T05:50:26;99986.34;;;7.36;45.81
47706;BME280;33471;52.104;1.318;2022-11-21T05:52:53;99985.59;;;7.00;45.88
47706;BME280;33471;52.104;1.318;2022-11-21T05:55:21;99983.61;;;6.95;45.91
47706;BME280;33471;52.104;1.318;2022-11-21T05:57:48;99981.64;;;7.11;46.02
47706;BME280;33471;52.104;1.318;2022-11-21T06:00:16;99976.76;;;6.81;46.18
47706;BME280;33471;52.104;1.318;2022-11-21T06:02:43;99968.75;;;6.61;46.34
47706;BME280;33471;52.104;1.318;2022-11-21T06:05:10;99960.55;;;6.61;46.33
47706;BME280;33471;52.104;1.318;2022-11-21T06:07:37;99956.82;;;6.92;46.16
47706;BME280;33471;52.104;1.318;2022-11-21T06:10:05;99956.08;;;6.97;45.16
47706;BME280;33471;52.104;1.318;2022-11-21T06:12:32;99956.00;;;7.41;45.38
47706;BME280;33471;52.104;1.318;2022-11-21T06:14:59;99956.65;;;6.46;45.93
47706;BME280;33471;52.104;1.318;2022-11-21T06:17:26;99957.49;;;6.75;46.24
47706;BME280;33471;52.104;1.318;2022-11-21T06:19:54;99952.79;;;6.10;46.29
47706;BME280;33471;52.104;1.318;2022-11-21T06:22:22;99944.78;;;6.68;46.22
47706;BME280;33471;52.104;1.318;2022-11-21T06:24:49;99938.08;;;6.51;46.35
47706;BME280;33471;52.104;1.318;2022-11-21T06:27:16;99935.89;;;6.37;46.47
47706;BME280;33471;52.104;1.318;2022-11-21T06:29:43;99928.18;;;6.60;46.23
47706;BME280;33471;52.104;1.318;2022-11-21T06:32:10;99919.88;;;6.85;46.24
47706;BME280;33471;52.104;1.318;2022-11-21T06:34:37;99914.25;;;6.82;46.38
47706;BME280;33471;52.104;1.318;2022-11-21T06:37:04;99910.47;;;6.37;46.47
47706;BME280;33471;52.104;1.318;2022-11-21T06:39:32;99910.06;;;6.94;46.19
47706;BME280;33471;52.104;1.318;2022-11-21T06:42:00;99907.68;;;6.41;46.31
47706;BME280;33471;52.104;1.318;2022-11-21T06:44:28;99902.52;;;6.95;46.34
47706;BME280;33471;52.104;1.318;2022-11-21T06:46:56;99899.49;;;6.50;46.36
47706;BME280;33471;52.104;1.318;2022-11-21T06:49:23;99892.89;;;7.07;46.29
47706;BME280;33471;52.104;1.318;2022-11-21T06:51:51;99883.16;;;7.17;46.19
47706;BME280;33471;52.104;1.318;2022-11-21T06:54:18;99871.34;;;7.00;46.20
47706;BME280;33471;52.104;1.318;2022-11-21T06:56:45;99873.61;;;7.17;46.34
47706;BME280;33471;52.104;1.318;2022-11-21T06:59:13;99873.07;;;6.79;46.29
47706;BME280;33471;52.104;1.318;2022-11-21T07:01:40;99861.19;;;7.13;46.34
47706;BME280;33471;52.104;1.318;2022-11-21T07:04:07;99856.74;;;6.80;46.17
47706;BME280;33471;52.104;1.318;2022-11-21T07:06:34;99851.55;;;7.30;46.25
47706;BME280;33471;52.104;1.318;2022-11-21T07:09:01;99849.28;;;6.83;46.33
47706;BME280;33471;52.104;1.318;2022-11-21T07:11:28;99851.98;;;7.55;46.44
47706;BME280;33471;52.104;1.318;2022-11-21T07:13:55;99851.90;;;6.99;46.34
47706;BME280;33471;52.104;1.318;2022-11-21T07:16:23;99847.50;;;7.23;46.45
47706;BME280;33471;52.104;1.318;2022-11-21T07:18:50;99840.19;;;7.26;46.51
47706;BME280;33471;52.104;1.318;2022-11-21T07:21:17;99829.95;;;7.32;46.44
47706;BME280;33471;52.104;1.318;2022-11-21T07:23:44;99821.17;;;7.33;46.49
47706;BME280;33471;52.104;1.318;2022-11-21T07:26:12;99815.11;;;7.29;46.56
47706;BME280;33471;52.104;1.318;2022-11-21T07:28:39;99812.28;;;7.63;46.40
47706;BME280;33471;52.104;1.318;2022-11-21T07:31:09;99802.10;;;7.40;46.34
47706;BME280;33471;52.104;1.318;2022-11-21T07:33:36;99793.76;;;7.58;46.30
47706;BME280;33471;52.104;1.318;2022-11-21T07:36:04;99786.95;;;6.93;46.25
47706;BME280;33471;52.104;1.318;2022-11-21T07:38:31;99781.85;;;7.72;46.49
47706;BME280;33471;52.104;1.318;2022-11-21T07:40:58;99773.17;;;6.91;46.23
47706;BME280;33471;52.104;1.318;2022-11-21T07:43:25;99770.86;;;7.38;46.18
47706;BME280;33471;52.104;1.318;2022-11-21T07:45:53;99768.56;;;7.14;46.19
47706;BME280;33471;52.104;1.318;2022-11-21T07:48:21;99764.27;;;7.54;45.62
47706;BME280;33471;52.104;1.318;2022-11-21T07:50:48;99765.56;;;7.47;45.65
47706;BME280;33471;52.104;1.318;2022-11-21T07:53:15;99763.02;;;7.50;45.60
47706;BME280;33471;52.104;1.318;2022-11-21T07:55:43;99756.83;;;7.88;45.81
47706;BME280;33471;52.104;1.318;2022-11-21T07:58:11;99749.76;;;7.39;46.04
47706;BME280;33471;52.104;1.318;2022-11-21T08:00:40;99746.30;;;7.89;46.33
47706;BME280;33471;52.104;1.318;2022-11-21T08:03:07;99734.75;;;7.76;46.02
47706;BME280;33471;52.104;1.318;2022-11-21T08:05:35;99728.37;;;7.80;46.56
47706;BME280;33471;52.104;1.318;2022-11-21T08:08:03;99720.99;;;7.69;45.76
47706;BME280;33471;52.104;1.318;2022-11-21T08:10:30;99717.42;;;7.78;46.36
47706;BME280;33471;52.104;1.318;2022-11-21T08:12:58;99718.50;;;7.24;46.15
47706;BME280;33471;52.104;1.318;2022-11-21T08:15:26;99717.12;;;8.01;46.14
47706;BME280;33471;52.104;1.318;2022-11-21T08:17:54;99714.61;;;7.91;46.15
47706;BME280;33471;52.104;1.318;2022-11-21T08:20:22;99710.71;;;8.19;46.36
47706;BME280;33471;52.104;1.318;2022-11-21T08:22:50;99705.46;;;8.30;46.43
47706;BME280;33471;52.104;1.318;2022-11-21T08:25:17;99701.91;;;8.53;46.30
47706;BME280;33471;52.104;1.318;2022-11-21T08:27:45;99694.08;;;8.71;46.26
47706;BME280;33471;52.104;1.318;2022-11-21T08:30:13;99687.47;;;8.62;46.39
47706;BME280;33471;52.104;1.318;2022-11-21T08:32:40;99676.16;;;8.52;46.45
47706;BME280;33471;52.104;1.318;2022-11-21T08:35:07;99670.43;;;8.55;45.97
47706;BME280;33471;52.104;1.318;2022-11-21T08:37:34;99663.08;;;8.77;46.68
47706;BME280;33471;52.104;1.318;2022-11-21T08:40:02;99657.27;;;8.38;46.16
47706;BME280;33471;52.104;1.318;2022-11-21T08:42:30;99659.08;;;8.89;46.45
47706;BME280;33471;52.104;1.318;2022-11-21T08:44:58;99655.51;;;8.36;45.94
47706;BME280;33471;52.104;1.318;2022-11-21T08:47:25;99657.81;;;9.20;46.32
47706;BME280;33471;52.104;1.318;2022-11-21T08:49:52;99662.30;;;9.04;46.74
47706;BME280;33471;52.104;1.318;2022-11-21T08:52:19;99654.42;;;9.50;46.10
47706;BME280;33471;52.104;1.318;2022-11-21T08:54:46;99650.99;;;9.54;46.49
47706;BME280;33471;52.104;1.318;2022-11-21T08:57:14;99642.34;;;9.61;46.19
47706;BME280;33471;52.104;1.318;2022-11-21T08:59:41;99636.87;;;9.40;46.75
47706;BME280;33471;52.104;1.318;2022-11-21T09:02:09;99634.92;;;9.55;46.63
47706;BME280;33471;52.104;1.318;2022-11-21T09:04:37;99636.18;;;9.65;46.35
47706;BME280;33471;52.104;1.318;2022-11-21T09:07:04;99632.04;;;9.98;46.32
47706;BME280;33471;52.104;1.318;2022-11-21T09:09:31;99623.20;;;10.12;45.90
47706;BME280;33471;52.104;1.318;2022-11-21T09:11:59;99615.56;;;9.89;46.22
47706;BME280;33471;52.104;1.318;2022-11-21T09:14:27;99605.73;;;10.78;45.83
47706;BME280;33471;52.104;1.318;2022-11-21T09:16:54;99599.88;;;10.35;46.03
47706;BME280;33471;52.104;1.318;2022-11-21T09:19:22;99593.66;;;10.77;46.07
47706;BME280;33471;52.104;1.318;2022-11-21T09:21:51;99588.56;;;10.84;44.94
47706;BME280;33471;52.104;1.318;2022-11-21T09:24:19;99584.59;;;10.86;45.78
47706;BME280;33471;52.104;1.318;2022-11-21T09:26:46;99583.51;;;10.82;46.08
47706;BME280;33471;52.104;1.318;2022-11-21T09:29:13;99577.94;;;10.85;45.54
47706;BME280;33471;52.104;1.318;2022-11-21T09:31:41;99567.96;;;11.38;45.10
47706;BME280;33471;52.104;1.318;2022-11-21T09:34:10;99564.17;;;11.05;45.20
47706;BME280;33471;52.104;1.318;2022-11-21T09:36:37;99565.01;;;11.33;45.46
47706;BME280;33471;52.104;1.318;2022-11-21T09:39:05;99558.06;;;11.58;45.11
47706;BME280;33471;52.104;1.318;2022-11-21T09:41:39;99550.34;;;11.52;45.34
47706;BME280;33471;52.104;1.318;2022-11-21T09:44:12;99541.41;;;12.08;44.86
47706;BME280;33471;52.104;1.318;2022-11-21T09:46:46;99531.03;;;11.76;44.89
47706;BME280;33471;52.104;1.318;2022-11-21T09:49:14;99520.95;;;12.17;44.16
47706;BME280;33471;52.104;1.318;2022-11-21T09:51:44;99519.85;;;12.17;43.57
47706;BME280;33471;52.104;1.318;2022-11-21T09:54:17;99522.11;;;12.02;43.49
47706;BME280;33471;52.104;1.318;2022-11-21T09:56:46;99517.31;;;12.14;43.92
47706;BME280;33471;52.104;1.318;2022-11-21T09:59:26;99510.25;;;11.76;44.16
47706;BME280;33471;52.104;1.318;2022-11-21T10:01:56;99499.52;;;11.39;43.96
47706;BME280;33471;52.104;1.318;2022-11-21T10:04:23;99490.39;;;12.29;43.21
47706;BME280;33471;52.104;1.318;2022-11-21T10:06:58;99491.12;;;12.46;43.26
47706;BME280;33471;52.104;1.318;2022-11-21T10:09:39;99491.02;;;12.82;43.07
47706;BME280;33471;52.104;1.318;2022-11-21T10:12:17;99478.80;;;12.56;43.03
47706;BME280;33471;52.104;1.318;2022-11-21T10:14:57;99470.93;;;13.17;43.07
47706;BME280;33471;52.104;1.318;2022-11-21T10:17:34;99461.89;;;13.29;42.24
47706;BME280;33471;52.104;1.318;2022-11-21T10:20:21;99461.13;;;12.73;42.17
47706;BME280;33471;52.104;1.318;2022-11-21T10:23:06;99464.59;;;13.05;42.37
47706;BME280;33471;52.104;1.318;2022-11-21T10:25:44;99456.28;;;13.93;41.42
47706;BME280;33471;52.104;1.318;2022-11-21T10:28:20;99450.96;;;13.74;41.53
47706;BME280;33471;52.104;1.318;2022-11-21T10:30:49;99444.35;;;13.57;42.38
47706;BME280;33471;52.104;1.318;2022-11-21T10:33:25;99434.68;;;13.80;41.78
47706;BME280;33471;52.104;1.318;2022-11-21T10:35:59;99424.47;;;13.96;42.07
47706;BME280;33471;52.104;1.318;2022-11-21T10:38:28;99421.10;;;13.62;42.27
47706;BME280;33471;52.104;1.318;2022-11-21T10:41:02;99414.78;;;13.74;42.78
47706;BME280;33471;52.104;1.318;2022-11-21T10:43:35;99404.94;;;13.37;43.67
47706;BME280;33471;52.104;1.318;2022-11-21T10:46:06;99400.24;;;12.63;44.00
47706;BME280;33471;52.104;1.318;2022-11-21T10:48:32;99398.39;;;12.61;45.26
47706;BME280;33471;52.104;1.318;2022-11-21T10:51:13;99395.34;;;12.55;44.79
47706;BME280;33471;52.104;1.318;2022-11-21T10:53:47;99388.06;;;13.18;45.04
47706;BME280;33471;52.104;1.318;2022-11-21T10:56:32;99381.15;;;13.12;45.50
47706;BME280;33471;52.104;1.318;2022-11-21T10:59:11;99366.63;;;13.22;45.82
47706;BME280;33471;52.104;1.318;2022-11-21T11:01:54;99358.51;;;12.38;47.58
47706;BME280;33471;52.104;1.318;2022-11-21T11:04:25;99348.24;;;12.07;48.57
47706;BME280;33471;52.104;1.318;2022-11-21T11:06:52;99335.46;;;12.82;47.77
47706;BME280;33471;52.104;1.318;2022-11-21T11:09:22;99332.82;;;12.35;48.89
47706;BME280;33471;52.104;1.318;2022-11-21T11:11:51;99320.88;;;12.38;50.34
47706;BME280;33471;52.104;1.318;2022-11-21T11:14:29;99310.07;;;11.55;50.37
47706;BME280;33471;52.104;1.318;2022-11-21T11:16:56;99296.43;;;12.14;50.70
47706;BME280;33471;52.104;1.318;2022-11-21T11:19:26;99291.69;;;12.15;50.45
47706;BME280;33471;52.104;1.318;2022-11-21T11:21:54;99283.43;;;11.64;52.84
47706;BME280;33471;52.104;1.318;2022-11-21T11:24:23;99277.49;;;11.68;52.63
47706;BME280;33471;52.104;1.318;2022-11-21T11:26:56;99262.35;;;11.83;52.35
47706;BME280;33471;52.104;1.318;2022-11-21T11:29:25;99252.00;;;11.74;53.22
47706;BME280;33471;52.104;1.318;2022-11-21T11:31:56;99242.32;;;12.31;52.37
47706;BME280;33471;52.104;1.318;2022-11-21T11:34:27;99234.61;;;12.22;51.77
47706;BME280;33471;52.104;1.318;2022-11-21T11:37:11;99224.91;;;12.22;51.99
47706;BME280;33471;52.104;1.318;2022-11-21T11:39:43;99217.93;;;12.29;52.96
47706;BME280;33471;52.104;1.318;2022-11-21T11:42:44;99213.50;;;12.33;51.74
47706;BME280;33471;52.104;1.318;2022-11-21T11:45:29;99204.38;;;12.63;51.79
47706;BME280;33471;52.104;1.318;2022-11-21T11:48:06;99189.92;;;12.71;51.67
47706;BME280;33471;52.104;1.318;2022-11-21T11:50:37;99184.13;;;13.03;51.44
47706;BME280;33471;52.104;1.318;2022-11-21T11:53:13;99169.94;;;12.25;52.19
47706;BME280;33471;52.104;1.318;2022-11-21T11:55:44;99165.97;;;12.92;53.21
47706;BME280;33471;52.104;1.318;2022-11-21T11:58:19;99149.98;;;12.71;52.19
47706;BME280;33471;52.104;1.318;2022-11-21T12:00:53;99139.47;;;12.99;51.90
47706;BME280;33471;52.104;1.318;2022-11-21T12:03:29;99137.45;;;12.94;52.14
47706;BME280;33471;52.104;1.318;2022-11-21T12:06:04;99127.68;;;12.97;52.16
47706;BME280;33471;52.104;1.318;2022-11-21T12:08:40;99121.56;;;12.65;53.63
47706;BME280;33471;52.104;1.318;2022-11-21T12:11:22;99115.31;;;11.79;53.77
47706;BME280;33471;52.104;1.318;2022-11-21T12:13:52;99104.19;;;12.53;53.36
47706;BME280;33471;52.104;1.318;2022-11-21T12:16:24;99095.60;;;12.44;53.11
47706;BME280;33471;52.104;1.318;2022-11-21T12:18:55;99089.60;;;12.64;52.89
47706;BME280;33471;52.104;1.318;2022-11-21T12:21:25;99080.96;;;12.43;53.32
47706;BME280;33471;52.104;1.318;2022-11-21T12:23:55;99071.65;;;13.05;51.18
47706;BME280;33471;52.104;1.318;2022-11-21T12:26:35;99055.66;;;13.00;51.15
47706;BME280;33471;52.104;1.318;2022-11-21T12:29:18;99048.43;;;12.46;50.89
47706;BME280;33471;52.104;1.318;2022-11-21T12:31:59;99040.96;;;13.79;50.38
47706;BME280;33471;52.104;1.318;2022-11-21T12:34:42;99033.24;;;13.47;51.42
47706;BME280;33471;52.104;1.318;2022-11-21T12:37:21;99021.71;;;13.02;50.84
47706;BME280;33471;52.104;1.318;2022-11-21T12:39:58;99017.44;;;13.57;50.54
47706;BME280;33471;52.104;1.318;2022-11-21T12:42:34;99015.59;;;13.55;50.22
47706;BME280;33471;52.104;1.318;2022-11-21T12:45:20;99003.39;;;13.32;49.82
47706;BME280;33471;52.104;1.318;2022-11-21T12:48:43;99002.25;;;13.92;50.62
47706;BME280;33471;52.104;1.318;2022-11-21T12:51:30;98998.19;;;13.57;50.17
47706;BME280;33471;52.104;1.318;2022-11-21T12:54:06;98999.29;;;12.62;51.57
47706;BME280;33471;52.104;1.318;2022-11-21T12:56:43;98988.21;;;12.22;52.34
47706;BME280;33471;52.104;1.318;2022-11-21T12:59:15;98980.21;;;12.22;53.05
47706;BME280;33471;52.104;1.318;2022-11-21T13:01:50;98976.97;;;12.30;52.98
47706;BME280;33471;52.104;1.318;2022-11-21T13:04:27;98967.88;;;12.82;51.83
47706;BME280;33471;52.104;1.318;2022-11-21T13:06:56;98950.45;;;13.18;50.74
47706;BME280;33471;52.104;1.318;2022-11-21T13:09:26;98948.72;;;12.18;51.69
47706;BME280;33471;52.104;1.318;2022-11-21T13:12:01;98939.13;;;12.66;52.30
47706;BME280;33471;52.104;1.318;2022-11-21T13:14:39;98929.58;;;12.48;51.81
47706;BME280;33471;52.104;1.318;2022-11-21T13:17:18;98923.00;;;12.23;50.66